createdAt,value
2017-08-28T00:01:51.650Z,81.30
2017-08-28T00:04:23.716Z,81.50
2017-08-28T00:06:51.262Z,81.50
2017-08-28T00:09:18.754Z,81.40
2017-08-28T00:11:47.220Z,81.70
2017-08-28T00:14:14.808Z,82.40
2017-08-28T00:16:42.288Z,82.30
2017-08-28T00:19:09.784Z,82.50
2017-08-28T00:21:38.252Z,82.40
2017-08-28T00:24:06.024Z,82.90
2017-08-28T00:26:35.312Z,82.90
2017-08-28T00:29:03.680Z,83.10
2017-08-28T00:31:32.174Z,83.00
2017-08-28T00:34:01.769Z,83.10
2017-08-28T00:36:33.320Z,83.50
2017-08-28T00:39:03.850Z,83.80
2017-08-28T00:41:32.365Z,83.90
2017-08-28T00:44:03.451Z,83.60
2017-08-28T00:46:34.056Z,83.80
2017-08-28T00:49:04.597Z,84.00
2017-08-28T00:51:35.168Z,83.70
2017-08-28T00:54:04.729Z,83.90
2017-08-28T00:56:36.798Z,84.00
2017-08-28T00:59:16.008Z,83.80
2017-08-28T01:01:43.513Z,83.80
2017-08-28T01:04:11.058Z,83.50
2017-08-28T01:06:38.596Z,83.30
2017-08-28T01:09:06.151Z,83.10
2017-08-28T01:11:33.919Z,82.90
2017-08-28T01:14:01.486Z,83.10
2017-08-28T01:16:29.040Z,83.10
2017-08-28T01:18:56.840Z,83.40
2017-08-28T01:21:24.421Z,83.40
2017-08-28T01:23:52.149Z,83.30
2017-08-28T01:26:19.749Z,83.00
2017-08-28T01:28:47.484Z,82.80
2017-08-28T01:31:15.007Z,81.60
2017-08-28T01:33:42.547Z,81.50
2017-08-28T01:36:10.033Z,81.00
2017-08-28T01:38:37.642Z,80.60
2017-08-28T01:41:05.161Z,81.80
2017-08-28T01:43:32.753Z,81.20
2017-08-28T01:46:00.268Z,81.50
2017-08-28T01:48:27.808Z,81.50
2017-08-28T01:50:55.356Z,81.00
2017-08-28T01:53:22.896Z,80.40
2017-08-28T01:55:50.483Z,81.20
2017-08-28T01:58:18.102Z,81.60
2017-08-28T02:00:45.675Z,82.30
2017-08-28T02:03:13.178Z,82.00
2017-08-28T02:05:41.059Z,82.20
2017-08-28T02:08:08.989Z,82.20
2017-08-28T02:10:36.493Z,82.40
2017-08-28T02:13:04.038Z,81.70
2017-08-28T02:15:31.915Z,81.70
2017-08-28T02:17:59.402Z,82.60
2017-08-28T02:20:26.899Z,81.70
2017-08-28T02:22:54.383Z,82.80
2017-08-28T02:25:21.912Z,83.00
2017-08-28T02:27:49.431Z,83.00
2017-08-28T02:30:18.644Z,82.70
2017-08-28T02:32:46.668Z,83.30
2017-08-28T02:35:14.176Z,83.90
2017-08-28T02:37:41.733Z,83.50
2017-08-28T02:40:09.269Z,82.80
2017-08-28T02:42:46.734Z,82.20
2017-08-28T02:45:14.434Z,81.70
2017-08-28T02:47:41.936Z,82.80
2017-08-28T02:50:09.491Z,83.50
2017-08-28T02:52:37.039Z,82.00
2017-08-28T02:55:04.581Z,82.00
2017-08-28T02:57:32.116Z,81.50
2017-08-28T02:59:59.660Z,81.90
2017-08-28T03:02:27.209Z,81.60
2017-08-28T03:04:54.708Z,81.40
2017-08-28T03:07:22.214Z,81.40
2017-08-28T03:09:49.853Z,82.20
2017-08-28T03:12:17.606Z,82.90
2017-08-28T03:14:45.218Z,83.20
2017-08-28T03:17:12.717Z,83.30
2017-08-28T03:19:40.277Z,82.80
2017-08-28T03:24:29.588Z,83.20
2017-08-28T03:26:57.078Z,82.70
2017-08-28T03:29:24.581Z,83.30
2017-08-28T03:31:52.069Z,82.70
2017-08-28T03:34:19.699Z,82.70
2017-08-28T03:36:47.188Z,83.20
2017-08-28T03:39:14.805Z,83.30
2017-08-28T03:41:42.466Z,82.10
2017-08-28T03:44:10.057Z,82.60
2017-08-28T03:46:37.545Z,81.80
2017-08-28T03:49:05.053Z,81.70
2017-08-28T03:51:32.589Z,81.50
2017-08-28T03:54:00.142Z,81.30
2017-08-28T03:56:27.648Z,81.40
2017-08-28T03:58:55.142Z,81.50
2017-08-28T04:01:22.646Z,81.40
2017-08-28T04:03:50.129Z,81.70
2017-08-28T04:06:17.701Z,81.80
2017-08-28T04:08:45.257Z,82.10
2017-08-28T04:11:12.788Z,83.30
2017-08-28T04:13:40.284Z,82.50
2017-08-28T04:16:07.848Z,82.80
2017-08-28T04:18:35.334Z,82.90
2017-08-28T04:21:02.854Z,82.80
2017-08-28T04:23:30.359Z,83.50
2017-08-28T04:25:57.888Z,82.80
2017-08-28T04:28:25.390Z,83.40
2017-08-28T04:30:52.897Z,83.00
2017-08-28T04:33:20.403Z,83.10
2017-08-28T04:35:47.972Z,83.00
2017-08-28T04:38:15.600Z,83.50
2017-08-28T04:40:43.137Z,83.30
2017-08-28T04:43:10.973Z,83.40
2017-08-28T04:45:38.494Z,83.30
2017-08-28T04:48:06.077Z,83.40
2017-08-28T04:50:33.622Z,83.30
2017-08-28T04:53:01.189Z,83.20
2017-08-28T04:55:28.841Z,83.20
2017-08-28T04:57:56.352Z,83.20
2017-08-28T05:00:23.897Z,83.30
2017-08-28T05:02:51.386Z,83.20
2017-08-28T05:05:18.888Z,83.20
2017-08-28T05:07:46.459Z,83.00
2017-08-28T05:10:14.110Z,83.10
2017-08-28T05:12:41.640Z,83.10
2017-08-28T05:15:09.145Z,83.10
2017-08-28T05:17:36.641Z,83.40
2017-08-28T05:20:04.481Z,83.10
2017-08-28T05:22:32.023Z,82.90
2017-08-28T05:24:59.544Z,83.10
2017-08-28T05:27:27.093Z,82.80
2017-08-28T05:29:54.605Z,82.50
2017-08-28T05:32:22.096Z,82.30
2017-08-28T05:34:49.611Z,81.90
2017-08-28T05:37:17.257Z,80.80
2017-08-28T05:39:44.816Z,79.70
2017-08-28T05:42:12.357Z,78.40
2017-08-28T05:44:39.845Z,77.40
2017-08-28T05:47:07.418Z,76.20
2017-08-28T05:49:35.229Z,76.90
2017-08-28T05:52:02.754Z,75.50
2017-08-28T05:54:30.253Z,76.40
2017-08-28T05:56:57.764Z,76.80
2017-08-28T05:59:25.341Z,77.90
2017-08-28T06:01:52.851Z,79.10
2017-08-28T06:04:20.438Z,79.10
2017-08-28T06:06:47.958Z,78.50
2017-08-28T06:09:15.593Z,78.70
2017-08-28T06:11:43.213Z,78.10
2017-08-28T06:14:10.758Z,78.00
2017-08-28T06:16:38.261Z,77.30
2017-08-28T06:19:05.802Z,76.30
2017-08-28T06:21:33.326Z,76.40
2017-08-28T06:24:00.825Z,76.00
2017-08-28T06:26:28.345Z,76.20
2017-08-28T06:28:55.845Z,75.80
2017-08-28T06:31:23.393Z,75.50
2017-08-28T06:33:50.933Z,74.70
2017-08-28T06:36:18.477Z,72.70
2017-08-28T06:38:46.062Z,70.80
2017-08-28T06:41:14.368Z,69.30
2017-08-28T06:43:41.878Z,67.70
2017-08-28T06:46:09.473Z,65.30
2017-08-28T06:48:36.977Z,64.80
2017-08-28T06:51:04.565Z,63.90
2017-08-28T06:53:32.067Z,63.30
2017-08-28T06:55:59.584Z,62.10
2017-08-28T06:58:27.088Z,61.90
2017-08-28T07:00:54.593Z,61.60
2017-08-28T07:03:22.177Z,61.50
2017-08-28T07:05:49.717Z,61.80
2017-08-28T07:08:17.236Z,61.20
2017-08-28T07:10:44.745Z,60.40
2017-08-28T07:13:12.284Z,59.40
2017-08-28T07:15:39.801Z,58.90
2017-08-28T07:18:07.342Z,58.60
2017-08-28T07:20:34.842Z,58.00
2017-08-28T07:23:02.364Z,57.30
2017-08-28T07:25:29.869Z,57.40
2017-08-28T07:27:59.072Z,56.80
2017-08-28T07:30:26.567Z,56.60
2017-08-28T07:32:55.001Z,56.40
2017-08-28T07:35:33.687Z,56.50
2017-08-28T07:38:01.214Z,56.00
2017-08-28T07:40:38.854Z,56.60
2017-08-28T07:43:06.476Z,56.40
2017-08-28T07:45:36.771Z,57.30
2017-08-28T07:48:04.490Z,56.40
2017-08-28T07:50:31.977Z,56.00
2017-08-28T07:52:59.577Z,55.80
2017-08-28T07:55:27.066Z,54.50
2017-08-28T07:57:56.105Z,54.20
2017-08-28T08:00:25.957Z,54.30
2017-08-28T08:02:57.121Z,54.20
2017-08-28T08:05:25.898Z,53.60
2017-08-28T08:07:56.063Z,53.60
2017-08-28T08:10:25.057Z,52.50
2017-08-28T08:12:56.421Z,51.80
2017-08-28T08:15:26.217Z,51.10
2017-08-28T08:18:04.198Z,50.80
2017-08-28T08:20:32.529Z,50.80
2017-08-28T08:23:00.105Z,50.80
2017-08-28T08:25:27.650Z,50.10
2017-08-28T08:27:56.864Z,49.00
2017-08-28T08:30:25.502Z,48.30
2017-08-28T08:33:03.410Z,48.60
2017-08-28T08:35:34.638Z,48.30
2017-08-28T08:38:02.146Z,47.90
2017-08-28T08:40:29.642Z,48.40
2017-08-28T08:42:57.149Z,48.50
2017-08-28T08:45:55.512Z,47.90
2017-08-28T08:48:36.158Z,48.10
2017-08-28T08:51:26.506Z,47.60
2017-08-28T08:54:02.682Z,47.30
2017-08-28T08:56:30.170Z,47.30
2017-08-28T08:58:57.770Z,48.00
2017-08-28T09:01:31.597Z,47.80
2017-08-28T09:04:25.977Z,47.40
2017-08-28T09:06:55.257Z,47.70
2017-08-28T09:13:01.865Z,46.50
2017-08-28T09:15:29.349Z,47.00
2017-08-28T09:17:56.860Z,46.60
2017-08-28T09:20:27.004Z,46.10
2017-08-28T09:25:55.190Z,45.80
2017-08-28T09:28:30.300Z,45.50
2017-08-28T09:31:05.361Z,45.80
2017-08-28T09:36:29.117Z,44.40
2017-08-28T09:39:06.314Z,44.00
2017-08-28T09:41:43.708Z,44.00
2017-08-28T09:47:07.587Z,45.30
2017-08-28T09:49:35.173Z,45.10
2017-08-28T09:55:00.265Z,44.20
2017-08-28T09:57:29.353Z,43.70
2017-08-28T09:59:59.266Z,43.90
2017-08-28T10:02:42.473Z,43.40
2017-08-28T10:05:11.365Z,43.00
2017-08-28T10:07:39.732Z,42.70
2017-08-28T10:10:07.245Z,42.60
2017-08-28T10:12:44.058Z,43.10
2017-08-28T10:15:28.937Z,43.00
2017-08-28T10:17:59.037Z,43.00
2017-08-28T10:20:37.441Z,42.50
2017-08-28T10:23:07.113Z,43.00
2017-08-28T10:25:34.690Z,42.10
2017-08-28T10:28:02.405Z,42.30
2017-08-28T10:30:56.343Z,41.50
2017-08-28T10:33:34.685Z,41.10
2017-08-28T10:36:10.162Z,41.60
2017-08-28T10:38:37.666Z,40.20
2017-08-28T10:41:42.710Z,40.10
2017-08-28T10:44:32.125Z,39.20
2017-08-28T10:47:12.186Z,38.90
2017-08-28T10:49:43.338Z,38.60
2017-08-28T10:52:16.447Z,38.70
2017-08-28T10:58:00.901Z,38.70
2017-08-28T11:00:32.897Z,38.80
2017-08-28T11:03:00.417Z,39.10
2017-08-28T11:05:39.529Z,38.70
2017-08-28T11:11:04.545Z,38.40
2017-08-28T11:13:44.622Z,39.30
2017-08-28T11:16:42.566Z,39.40
2017-08-28T11:19:29.705Z,38.60
2017-08-28T11:22:07.306Z,37.50
2017-08-28T11:24:34.830Z,37.20
2017-08-28T11:27:04.814Z,36.90
2017-08-28T11:32:42.665Z,36.60
2017-08-28T11:35:12.130Z,36.60
2017-08-28T11:38:02.198Z,37.40
2017-08-28T11:43:41.077Z,36.20
2017-08-28T11:46:10.666Z,36.60
2017-08-28T11:48:38.213Z,36.50
2017-08-28T11:51:28.355Z,37.50
2017-08-28T11:54:00.305Z,38.30
2017-08-28T11:56:57.380Z,37.50
2017-08-28T11:59:36.365Z,36.70
2017-08-28T12:02:12.489Z,35.90
2017-08-28T12:05:01.851Z,35.40
2017-08-28T12:07:30.940Z,36.20
2017-08-28T12:10:09.942Z,37.30
2017-08-28T12:13:02.873Z,35.70
2017-08-28T12:15:38.294Z,34.60
2017-08-28T12:21:06.421Z,33.30
2017-08-28T12:23:40.769Z,33.20
2017-08-28T12:26:08.901Z,32.30
2017-08-28T12:28:36.389Z,32.10
2017-08-28T12:31:09.238Z,31.50
2017-08-28T12:34:02.107Z,32.10
2017-08-28T12:36:40.213Z,32.80
2017-08-28T12:39:34.956Z,32.20
2017-08-28T12:42:13.501Z,33.60
2017-08-28T12:45:02.532Z,31.90
2017-08-28T12:47:40.994Z,30.60
2017-08-28T12:50:30.324Z,31.20
2017-08-28T12:56:00.599Z,31.50
2017-08-28T12:59:01.719Z,31.70
2017-08-28T13:04:41.161Z,31.20
2017-08-28T13:07:40.341Z,30.20
2017-08-28T13:10:07.830Z,30.20
2017-08-28T13:12:35.398Z,30.50
2017-08-28T13:18:08.426Z,29.00
2017-08-28T13:26:25.792Z,28.60
2017-08-28T13:29:12.497Z,29.50
2017-08-28T13:34:34.501Z,30.80
2017-08-28T13:39:59.293Z,29.10
2017-08-28T13:42:56.774Z,27.90
2017-08-28T13:45:27.753Z,28.50
2017-08-28T13:48:12.413Z,29.50
2017-08-28T13:50:39.917Z,29.70
2017-08-28T13:53:26.744Z,30.80
2017-08-28T13:56:00.304Z,31.00
2017-08-28T13:58:32.273Z,31.40
2017-08-28T14:01:11.945Z,30.20
2017-08-28T14:03:40.345Z,29.70
2017-08-28T14:06:08.071Z,30.50
2017-08-28T14:08:35.645Z,32.90
2017-08-28T14:11:03.138Z,34.90
2017-08-28T14:13:30.724Z,35.10
2017-08-28T14:15:58.980Z,35.40
2017-08-28T14:18:31.670Z,36.70
2017-08-28T14:20:59.286Z,37.20
2017-08-28T14:23:27.782Z,38.50
2017-08-28T14:25:57.649Z,39.30
2017-08-28T14:28:36.577Z,39.90
2017-08-28T14:31:04.114Z,40.20
2017-08-28T14:33:31.659Z,41.10
2017-08-28T14:36:03.118Z,41.90
2017-08-28T14:38:30.715Z,42.70
2017-08-28T14:40:58.685Z,43.20
2017-08-28T14:43:27.671Z,43.10
2017-08-28T14:45:57.358Z,43.30
2017-08-28T14:48:34.999Z,42.90
2017-08-28T14:51:02.585Z,43.20
2017-08-28T14:53:30.134Z,43.30
2017-08-28T14:55:58.495Z,44.00
2017-08-28T14:58:27.072Z,45.50
2017-08-28T15:01:06.126Z,45.40
2017-08-28T15:03:33.621Z,45.80
2017-08-28T15:06:01.162Z,46.20
2017-08-28T15:08:28.692Z,46.00
2017-08-28T15:10:57.774Z,45.20
2017-08-28T15:13:36.016Z,44.90
2017-08-28T15:16:03.622Z,44.80
2017-08-28T15:18:31.166Z,45.30
2017-08-28T15:20:58.780Z,45.80
2017-08-28T15:23:27.363Z,46.00
2017-08-28T15:25:55.787Z,46.00
2017-08-28T15:28:24.429Z,47.90
2017-08-28T15:30:52.846Z,47.90
2017-08-28T15:33:22.543Z,48.00
2017-08-28T15:35:51.551Z,48.40
2017-08-28T15:38:20.685Z,48.40
2017-08-28T15:40:53.806Z,48.30
2017-08-28T15:43:25.364Z,48.50
2017-08-28T15:45:53.974Z,49.40
2017-08-28T15:48:23.455Z,49.30
2017-08-28T15:51:02.249Z,49.20
2017-08-28T15:53:29.777Z,49.40
2017-08-28T15:55:57.501Z,48.90
2017-08-28T15:58:26.117Z,50.10
2017-08-28T16:00:53.657Z,49.90
2017-08-28T16:03:21.469Z,50.70
2017-08-28T16:05:49.816Z,50.90
2017-08-28T16:08:19.470Z,50.90
2017-08-28T16:10:48.557Z,51.20
2017-08-28T16:13:19.023Z,51.40
2017-08-28T16:15:47.897Z,51.30
2017-08-28T16:18:18.154Z,52.10
2017-08-28T16:20:57.246Z,51.10
2017-08-28T16:23:24.837Z,51.10
2017-08-28T16:25:53.344Z,51.80
2017-08-28T16:28:20.881Z,51.60
2017-08-28T16:30:49.974Z,51.50
2017-08-28T16:33:17.703Z,52.10
2017-08-28T16:35:46.465Z,52.30
2017-08-28T16:38:16.382Z,52.70
2017-08-28T16:40:46.396Z,53.00
2017-08-28T16:43:16.299Z,52.80
2017-08-28T16:45:55.017Z,53.30
2017-08-28T16:48:22.593Z,52.60
2017-08-28T16:50:50.677Z,52.70
2017-08-28T16:53:18.480Z,53.60
2017-08-28T16:55:57.397Z,53.80
2017-08-28T16:58:24.923Z,53.20
2017-08-28T17:01:03.417Z,53.50
2017-08-28T17:03:31.013Z,54.10
2017-08-28T17:05:58.501Z,53.70
2017-08-28T17:08:25.992Z,54.30
2017-08-28T17:10:53.505Z,54.60
2017-08-28T17:13:21.118Z,54.80
2017-08-28T17:15:50.499Z,55.30
2017-08-28T17:18:18.617Z,55.10
2017-08-28T17:20:46.712Z,55.70
2017-08-28T17:23:18.808Z,55.30
2017-08-28T17:25:47.489Z,55.20
2017-08-28T17:28:18.110Z,55.10
2017-08-28T17:30:47.211Z,55.10
2017-08-28T17:33:16.393Z,55.40
2017-08-28T17:35:47.173Z,55.80
2017-08-28T17:38:16.187Z,55.20
2017-08-28T17:40:55.649Z,56.10
2017-08-28T17:43:23.257Z,56.60
2017-08-28T17:45:50.841Z,57.10
2017-08-28T17:48:19.017Z,57.80
2017-08-28T17:50:46.809Z,58.80
2017-08-28T17:53:15.527Z,58.80
2017-08-28T17:55:44.333Z,59.60
2017-08-28T17:58:24.452Z,60.40
2017-08-28T18:00:52.894Z,61.80
2017-08-28T18:03:20.572Z,62.50
2017-08-28T18:05:48.853Z,63.20
2017-08-28T18:08:17.481Z,64.10
2017-08-28T18:10:46.662Z,64.40
2017-08-28T18:13:16.761Z,65.50
2017-08-28T18:15:47.539Z,65.30
2017-08-28T18:18:16.279Z,65.60
2017-08-28T18:20:46.768Z,66.10
2017-08-28T18:23:15.717Z,66.10
2017-08-28T18:25:43.942Z,66.80
2017-08-28T18:28:14.738Z,67.20
2017-08-28T18:30:45.803Z,67.30
2017-08-28T18:33:14.232Z,68.20
2017-08-28T18:35:42.742Z,68.90
2017-08-28T18:38:12.111Z,68.60
2017-08-28T18:40:39.956Z,69.30
2017-08-28T18:43:07.637Z,69.30
2017-08-28T18:45:35.185Z,69.40
2017-08-28T18:48:02.955Z,68.80
2017-08-28T18:50:30.493Z,69.00
2017-08-28T18:52:58.042Z,69.70
2017-08-28T18:55:25.569Z,70.00
2017-08-28T18:57:53.061Z,70.40
2017-08-28T19:00:21.165Z,71.00
2017-08-28T19:02:48.941Z,71.40
2017-08-28T19:05:18.424Z,71.90
2017-08-28T19:07:47.985Z,72.00
2017-08-28T19:10:16.558Z,72.20
2017-08-28T19:12:44.752Z,72.40
2017-08-28T19:15:25.058Z,72.70
2017-08-28T19:17:52.578Z,73.30
2017-08-28T19:20:21.188Z,73.30
2017-08-28T19:22:49.368Z,73.40
2017-08-28T19:25:17.603Z,73.60
2017-08-28T19:27:46.574Z,73.20
2017-08-28T19:30:15.596Z,73.70
2017-08-28T19:32:45.432Z,74.00
2017-08-28T19:35:15.005Z,74.00
2017-08-28T19:37:47.078Z,74.40
2017-08-28T19:40:17.050Z,74.90
2017-08-28T19:42:48.749Z,74.90
2017-08-28T19:45:18.283Z,74.40
2017-08-28T19:47:47.004Z,74.20
2017-08-28T19:50:16.219Z,74.40
2017-08-28T19:52:44.553Z,74.60
2017-08-28T19:55:13.916Z,75.00
2017-08-28T19:57:42.940Z,75.00
2017-08-28T20:00:10.605Z,76.30
2017-08-28T20:02:44.856Z,76.00
2017-08-28T20:05:17.322Z,76.40
2017-08-28T20:07:47.367Z,76.70
2017-08-28T20:10:26.360Z,76.90
2017-08-28T20:12:53.957Z,77.40
2017-08-28T20:15:21.702Z,77.70
2017-08-28T20:17:49.849Z,78.10
2017-08-28T20:20:27.481Z,78.60
2017-08-28T20:22:55.085Z,79.00
2017-08-28T20:25:23.249Z,79.30
2017-08-28T20:27:51.406Z,79.30
2017-08-28T20:30:18.974Z,79.70
2017-08-28T20:32:47.122Z,79.80
2017-08-28T20:35:15.705Z,79.90
2017-08-28T20:37:44.629Z,80.00
2017-08-28T20:40:13.117Z,80.10
2017-08-28T20:42:40.920Z,80.20
2017-08-28T20:45:09.437Z,80.40
2017-08-28T20:47:37.104Z,80.40
2017-08-28T20:50:16.980Z,80.80
2017-08-28T20:52:45.341Z,80.50
2017-08-28T20:55:24.139Z,80.80
2017-08-28T20:57:51.642Z,81.00
2017-08-28T21:00:19.381Z,81.50
2017-08-28T21:02:47.118Z,81.50
2017-08-28T21:05:26.482Z,81.40
2017-08-28T21:07:54.065Z,81.90
2017-08-28T21:10:21.614Z,81.30
2017-08-28T21:12:49.461Z,81.50
2017-08-28T21:15:17.757Z,81.70
2017-08-28T21:17:46.461Z,82.30
2017-08-28T21:20:14.193Z,82.70
2017-08-28T21:22:42.218Z,83.00
2017-08-28T21:25:10.030Z,83.50
2017-08-28T21:27:37.617Z,83.40
2017-08-28T21:30:05.464Z,83.50
2017-08-28T21:32:33.137Z,83.40
2017-08-28T21:35:00.736Z,83.40
2017-08-28T21:37:28.230Z,83.30
2017-08-28T21:39:55.821Z,83.10
2017-08-28T21:42:23.314Z,83.30
2017-08-28T21:44:50.908Z,83.70
2017-08-28T21:47:18.537Z,84.20
2017-08-28T21:49:47.185Z,84.70
2017-08-28T21:52:15.045Z,84.40
2017-08-28T21:54:43.492Z,84.60
2017-08-28T21:57:11.193Z,84.60
2017-08-28T21:59:38.845Z,84.50
2017-08-28T22:02:06.425Z,84.80
2017-08-28T22:04:33.974Z,85.10
2017-08-28T22:07:01.490Z,85.20
2017-08-28T22:09:30.464Z,85.70
2017-08-28T22:11:58.236Z,86.10
2017-08-28T22:14:26.473Z,85.90
2017-08-28T22:16:55.198Z,85.50
2017-08-28T22:19:34.966Z,85.40
2017-08-28T22:22:02.489Z,85.30
2017-08-28T22:24:30.286Z,85.70
2017-08-28T22:26:58.106Z,86.00
2017-08-28T22:29:26.038Z,86.40
2017-08-28T22:31:54.293Z,86.80
2017-08-28T22:34:22.223Z,86.60
2017-08-28T22:36:49.757Z,86.50
2017-08-28T22:39:17.353Z,86.80
2017-08-28T22:41:45.093Z,86.70
2017-08-28T22:44:12.797Z,86.90
2017-08-28T22:46:40.374Z,87.10
2017-08-28T22:49:07.861Z,87.40
2017-08-28T22:51:35.430Z,87.30
2017-08-28T22:54:02.921Z,87.70
2017-08-28T22:56:30.722Z,87.80
2017-08-28T22:58:58.417Z,88.00
2017-08-28T23:01:25.941Z,88.10
2017-08-28T23:03:54.292Z,88.10
2017-08-28T23:06:21.827Z,88.30
2017-08-28T23:08:49.405Z,88.20
2017-08-28T23:11:17.528Z,88.50
2017-08-28T23:13:46.272Z,88.50
2017-08-28T23:16:14.365Z,89.00
2017-08-28T23:18:42.013Z,89.00
2017-08-28T23:21:09.635Z,89.20
2017-08-28T23:23:37.403Z,89.20
2017-08-28T23:26:05.089Z,89.40
2017-08-28T23:28:32.673Z,89.00
2017-08-28T23:31:00.176Z,89.10
2017-08-28T23:33:27.754Z,89.30
2017-08-28T23:35:55.265Z,89.60
2017-08-28T23:38:22.853Z,89.40
2017-08-28T23:40:50.639Z,89.60
2017-08-28T23:43:18.331Z,89.30
2017-08-28T23:45:46.612Z,89.50
2017-08-28T23:48:15.069Z,89.40
2017-08-28T23:50:44.283Z,89.90
2017-08-28T23:53:12.293Z,89.70
2017-08-28T23:55:39.951Z,89.40
2017-08-28T23:58:07.461Z,89.90
